Westover, Maryland
Current Conditions -  °F | °C
As of 5:54 AM on Friday 31 Oct 2014 (Local Time) from KSBY Reporting Station
Overcast Overcast  
Wind Chill:   Ceiling: 6000
Heat Index:   Visibility: 10mi
Dew Point:   Wind: 7mph
Humidity: 74%   Direction: 10°N
Pressure: 29.99"   Gusts: NA
Location:  38.12°N, 75.71°W
Report Text: KSBY 310954Z 01006KT 10SM OVC060 07/03 A2999 RMK AO2 SLP156 T00720028
Loading
Personal Weather Stations






























Interactive Weather Map
Tropical Storm Tracking
New forecast layout! Learn more

10-Day Weather Forecast

Advertisements
Track Severe Weather on mobile